首页
METAR-TAF:

METAR-TAF

机场 :

Monticello Municipal Airport/Ellis Field

Monticello, 阿肯色州, 美国

纬度: 33-38-18N, 经度: 091-45-04W, 海拔: 82米

当前天气观测

该预报发布于45分钟前的04:53 UTC
风速3节,风向
温度 -1°C
湿度 80%
气压 1030 hPa
能見度: 16.1公里
天空无云

METAR: KLLQ 220453Z AUTO 08003KT 10SM CLR M01/M04 A3043 RMK AO2 SLP307 T10061039

时间: 23:38 (05:38 UTC)

预报

该预报发布于6小时和16分钟前的23:22 UTC
预报有效从22日的 00点(UTC)到 22日的 24点(UTC)
风速4节,风向多变
能見度: 10公里
散云层高于12000英尺
多云层高于25000英尺
从 22日的 1900点(UTC)
风速6节,风向南转南东
能見度: 9.7公里
多云层高于3000英尺
阴天层高于5000英尺
小雨, 轻雾

TAF: KLLQ 212322Z 2200/2224 VRB04KT P6SM SCT120 BKN250 FM221900 15006KT 6SM -RA BR BKN030 OVC050

超过4000个机场的气象观测和天气预报(METAR&TAF报告)。

可查询的气象台以黄色和红色小点在地图上表示。

将鼠标移到小点上方,可查看气象台名称。

然后点击查看天气观测和预报。

如需切换地图:点击带黑十字的绿色按钮放大地图;点击带横线的绿色按钮缩小地图;或者点击绿色箭头查看邻近地区的地图。


METAR-TAF: